Bradley, Mississippi
Current Conditions -  °F | °C
As of 4:35 AM on Friday 24 Oct 2014 (Local Time) from KSTF Reporting Station
Clear Clear  
Wind Chill: 50°   Ceiling: Unl
Heat Index: 50°   Visibility: 10mi
Dew Point: 46°   Wind: 0mph
Humidity: 87%   Direction: NA
Pressure: 30.1"   Gusts: NA
Location:  33.4256°N, 88.8438°W
Report Text: KSTF 240935Z AUTO 00000KT 10SM CLR 10/08 A3010 RMK AO2
Loading
Personal Weather Stations






























Interactive Weather Map
Tropical Storm Tracking
New forecast layout! Learn more

10-Day Weather Forecast

Advertisements
Track Severe Weather on mobile